sensor_id;sensor_type;location;lat;lon;timestamp;pressure;altitude;pressure_sealevel;temperature;humidity
50292;BME280;36190;54.980;73.388;2022-07-03T00:01:47;99548.00;;;15.50;76.05
50292;BME280;36190;54.980;73.388;2022-07-03T00:04:15;99544.09;;;15.46;76.13
50292;BME280;36190;54.980;73.388;2022-07-03T00:06:44;99542.25;;;15.46;76.49
50292;BME280;36190;54.980;73.388;2022-07-03T00:09:12;99540.94;;;15.49;76.48
50292;BME280;36190;54.980;73.388;2022-07-03T00:11:39;99543.44;;;15.50;76.50
50292;BME280;36190;54.980;73.388;2022-07-03T00:14:07;99551.41;;;15.57;76.47
50292;BME280;36190;54.980;73.388;2022-07-03T00:16:36;99554.09;;;15.57;76.59
50292;BME280;36190;54.980;73.388;2022-07-03T00:19:03;99549.56;;;15.58;76.63
50292;BME280;36190;54.980;73.388;2022-07-03T00:21:34;99540.03;;;15.62;77.15
50292;BME280;36190;54.980;73.388;2022-07-03T00:24:04;99541.00;;;15.67;77.31
50292;BME280;36190;54.980;73.388;2022-07-03T00:26:35;99542.78;;;15.74;77.31
50292;BME280;36190;54.980;73.388;2022-07-03T00:29:04;99536.50;;;15.80;77.00
50292;BME280;36190;54.980;73.388;2022-07-03T00:31:32;99548.22;;;15.86;77.21
50292;BME280;36190;54.980;73.388;2022-07-03T00:34:02;99546.31;;;15.93;77.30
50292;BME280;36190;54.980;73.388;2022-07-03T00:36:34;99555.38;;;15.99;77.24
50292;BME280;36190;54.980;73.388;2022-07-03T00:39:02;99546.09;;;15.94;77.12
50292;BME280;36190;54.980;73.388;2022-07-03T00:41:31;99542.63;;;15.87;77.30
50292;BME280;36190;54.980;73.388;2022-07-03T00:43:59;99544.56;;;15.80;77.53
50292;BME280;36190;54.980;73.388;2022-07-03T00:46:28;99541.00;;;15.67;77.79
50292;BME280;36190;54.980;73.388;2022-07-03T00:48:56;99541.28;;;15.59;78.10
50292;BME280;36190;54.980;73.388;2022-07-03T00:51:27;99540.06;;;15.55;78.53
50292;BME280;36190;54.980;73.388;2022-07-03T00:53:56;99535.91;;;15.59;78.68
50292;BME280;36190;54.980;73.388;2022-07-03T00:56:25;99531.34;;;15.60;78.70
50292;BME280;36190;54.980;73.388;2022-07-03T00:58:54;99530.38;;;15.73;78.78
50292;BME280;36190;54.980;73.388;2022-07-03T01:01:22;99535.16;;;15.89;78.41
50292;BME280;36190;54.980;73.388;2022-07-03T01:04:02;99536.94;;;16.02;78.34
50292;BME280;36190;54.980;73.388;2022-07-03T01:06:44;99534.16;;;16.09;77.92
50292;BME280;36190;54.980;73.388;2022-07-03T01:09:15;99546.75;;;16.27;77.37
50292;BME280;36190;54.980;73.388;2022-07-03T01:11:49;99550.84;;;16.30;77.24
50292;BME280;36190;54.980;73.388;2022-07-03T01:14:21;99546.94;;;16.44;77.21
50292;BME280;36190;54.980;73.388;2022-07-03T01:16:57;99549.50;;;16.39;76.63
50292;BME280;36190;54.980;73.388;2022-07-03T01:19:43;99549.78;;;16.49;76.54
50292;BME280;36190;54.980;73.388;2022-07-03T01:22:36;99547.56;;;16.58;76.60
50292;BME280;36190;54.980;73.388;2022-07-03T01:25:23;99538.22;;;16.61;76.40
50292;BME280;36190;54.980;73.388;2022-07-03T01:28:01;99542.09;;;16.65;76.43
50292;BME280;36190;54.980;73.388;2022-07-03T01:30:34;99537.31;;;16.67;76.06
50292;BME280;36190;54.980;73.388;2022-07-03T01:33:05;99545.84;;;16.64;75.81
50292;BME280;36190;54.980;73.388;2022-07-03T01:35:34;99541.63;;;16.68;75.76
50292;BME280;36190;54.980;73.388;2022-07-03T01:38:04;99545.75;;;16.71;75.95
50292;BME280;36190;54.980;73.388;2022-07-03T01:40:34;99547.16;;;16.73;75.78
50292;BME280;36190;54.980;73.388;2022-07-03T01:43:04;99546.69;;;16.76;75.89
50292;BME280;36190;54.980;73.388;2022-07-03T01:45:37;99544.38;;;16.80;75.83
50292;BME280;36190;54.980;73.388;2022-07-03T01:48:07;99555.88;;;16.87;75.65
50292;BME280;36190;54.980;73.388;2022-07-03T01:50:36;99551.28;;;16.88;75.57
50292;BME280;36190;54.980;73.388;2022-07-03T01:53:06;99552.63;;;16.97;75.50
50292;BME280;36190;54.980;73.388;2022-07-03T01:55:34;99548.56;;;17.07;75.21
50292;BME280;36190;54.980;73.388;2022-07-03T01:58:06;99550.91;;;17.15;74.79
50292;BME280;36190;54.980;73.388;2022-07-03T02:00:41;99546.81;;;17.24;74.48
50292;BME280;36190;54.980;73.388;2022-07-03T02:03:09;99548.59;;;17.30;74.19
50292;BME280;36190;54.980;73.388;2022-07-03T02:05:38;99551.16;;;17.37;74.00
50292;BME280;36190;54.980;73.388;2022-07-03T02:08:18;99554.56;;;17.44;73.97
50292;BME280;36190;54.980;73.388;2022-07-03T02:10:59;99553.84;;;17.49;73.87
50292;BME280;36190;54.980;73.388;2022-07-03T02:13:38;99557.72;;;17.53;73.47
50292;BME280;36190;54.980;73.388;2022-07-03T02:16:08;99559.94;;;17.56;73.18
50292;BME280;36190;54.980;73.388;2022-07-03T02:18:37;99551.28;;;17.54;73.07
50292;BME280;36190;54.980;73.388;2022-07-03T02:21:10;99560.53;;;17.58;73.04
50292;BME280;36190;54.980;73.388;2022-07-03T02:23:46;99562.16;;;17.59;72.71
50292;BME280;36190;54.980;73.388;2022-07-03T02:26:16;99558.41;;;17.60;72.62
50292;BME280;36190;54.980;73.388;2022-07-03T02:29:04;99562.88;;;17.67;72.83
50292;BME280;36190;54.980;73.388;2022-07-03T02:31:37;99559.00;;;17.75;72.51
50292;BME280;36190;54.980;73.388;2022-07-03T02:34:07;99561.91;;;17.85;72.25
50292;BME280;36190;54.980;73.388;2022-07-03T02:36:35;99562.84;;;17.91;72.00
50292;BME280;36190;54.980;73.388;2022-07-03T02:39:04;99559.44;;;17.95;71.74
50292;BME280;36190;54.980;73.388;2022-07-03T02:41:42;99553.56;;;17.98;71.24
50292;BME280;36190;54.980;73.388;2022-07-03T02:44:21;99557.44;;;18.14;70.79
50292;BME280;36190;54.980;73.388;2022-07-03T02:46:58;99557.97;;;18.28;70.29
50292;BME280;36190;54.980;73.388;2022-07-03T02:49:43;99552.63;;;18.46;69.89
50292;BME280;36190;54.980;73.388;2022-07-03T02:52:21;99551.84;;;18.62;68.67
50292;BME280;36190;54.980;73.388;2022-07-03T02:54:52;99564.34;;;18.80;68.35
50292;BME280;36190;54.980;73.388;2022-07-03T02:57:22;99568.00;;;18.91;67.88
50292;BME280;36190;54.980;73.388;2022-07-03T02:59:54;99554.22;;;19.05;67.34
50292;BME280;36190;54.980;73.388;2022-07-03T03:05:34;99556.81;;;19.51;66.16
50292;BME280;36190;54.980;73.388;2022-07-03T03:08:10;99546.47;;;19.65;65.49
50292;BME280;36190;54.980;73.388;2022-07-03T03:10:39;99554.97;;;19.74;65.12
50292;BME280;36190;54.980;73.388;2022-07-03T03:13:11;99552.47;;;19.67;64.93
50292;BME280;36190;54.980;73.388;2022-07-03T03:15:51;99557.47;;;19.58;64.76
50292;BME280;36190;54.980;73.388;2022-07-03T03:18:26;99555.38;;;19.43;65.26
50292;BME280;36190;54.980;73.388;2022-07-03T03:20:58;99553.56;;;19.32;65.41
50292;BME280;36190;54.980;73.388;2022-07-03T03:23:35;99546.22;;;19.10;65.58
50292;BME280;36190;54.980;73.388;2022-07-03T03:26:05;99546.50;;;18.96;65.88
50292;BME280;36190;54.980;73.388;2022-07-03T03:28:33;99557.31;;;18.96;65.92
50292;BME280;36190;54.980;73.388;2022-07-03T03:31:02;99554.09;;;19.00;65.67
50292;BME280;36190;54.980;73.388;2022-07-03T03:33:36;99553.16;;;19.06;65.25
50292;BME280;36190;54.980;73.388;2022-07-03T03:36:07;99552.09;;;19.07;65.17
50292;BME280;36190;54.980;73.388;2022-07-03T03:38:35;99547.50;;;19.07;64.92
50292;BME280;36190;54.980;73.388;2022-07-03T03:41:03;99547.50;;;19.07;64.64
50292;BME280;36190;54.980;73.388;2022-07-03T03:43:31;99535.88;;;19.07;64.04
50292;BME280;36190;54.980;73.388;2022-07-03T03:45:59;99542.44;;;19.11;63.25
50292;BME280;36190;54.980;73.388;2022-07-03T03:48:29;99543.09;;;19.18;62.88
50292;BME280;36190;54.980;73.388;2022-07-03T03:50:58;99538.06;;;19.27;62.91
50292;BME280;36190;54.980;73.388;2022-07-03T03:53:26;99538.66;;;19.29;62.22
50292;BME280;36190;54.980;73.388;2022-07-03T03:55:58;99528.50;;;19.19;61.57
50292;BME280;36190;54.980;73.388;2022-07-03T03:58:26;99534.91;;;19.30;61.69
50292;BME280;36190;54.980;73.388;2022-07-03T04:00:55;99539.78;;;19.33;61.21
50292;BME280;36190;54.980;73.388;2022-07-03T04:03:23;99528.78;;;19.40;60.84
50292;BME280;36190;54.980;73.388;2022-07-03T04:05:52;99544.22;;;19.40;60.59
50292;BME280;36190;54.980;73.388;2022-07-03T04:08:20;99535.28;;;19.39;60.54
50292;BME280;36190;54.980;73.388;2022-07-03T04:10:48;99537.06;;;19.50;60.42
50292;BME280;36190;54.980;73.388;2022-07-03T04:13:17;99539.69;;;19.85;59.82
50292;BME280;36190;54.980;73.388;2022-07-03T04:15:45;99540.09;;;20.16;58.57
50292;BME280;36190;54.980;73.388;2022-07-03T04:18:13;99538.38;;;20.32;57.73
50292;BME280;36190;54.980;73.388;2022-07-03T04:20:41;99537.56;;;20.31;57.48
50292;BME280;36190;54.980;73.388;2022-07-03T04:23:09;99538.06;;;20.28;57.87
50292;BME280;36190;54.980;73.388;2022-07-03T04:25:37;99539.38;;;20.26;58.06
50292;BME280;36190;54.980;73.388;2022-07-03T04:28:04;99536.63;;;20.20;58.34
50292;BME280;36190;54.980;73.388;2022-07-03T04:30:32;99534.63;;;20.11;58.64
50292;BME280;36190;54.980;73.388;2022-07-03T04:32:59;99528.91;;;20.07;58.86
50292;BME280;36190;54.980;73.388;2022-07-03T04:35:26;99532.91;;;20.04;58.87
50292;BME280;36190;54.980;73.388;2022-07-03T04:37:54;99542.63;;;20.00;59.09
50292;BME280;36190;54.980;73.388;2022-07-03T04:40:23;99539.06;;;19.95;58.98
50292;BME280;36190;54.980;73.388;2022-07-03T04:42:50;99544.47;;;19.95;58.77
50292;BME280;36190;54.980;73.388;2022-07-03T04:45:18;99549.69;;;20.01;58.35
50292;BME280;36190;54.980;73.388;2022-07-03T04:47:45;99543.50;;;20.06;57.25
50292;BME280;36190;54.980;73.388;2022-07-03T04:50:13;99543.88;;;20.15;56.57
50292;BME280;36190;54.980;73.388;2022-07-03T04:52:40;99545.75;;;20.37;55.90
50292;BME280;36190;54.980;73.388;2022-07-03T04:55:08;99551.78;;;20.71;55.03
50292;BME280;36190;54.980;73.388;2022-07-03T04:57:37;99553.47;;;21.05;54.11
50292;BME280;36190;54.980;73.388;2022-07-03T05:00:05;99540.59;;;21.23;53.72
50292;BME280;36190;54.980;73.388;2022-07-03T05:02:33;99546.72;;;21.51;53.43
50292;BME280;36190;54.980;73.388;2022-07-03T05:05:01;99551.66;;;21.59;52.64
50292;BME280;36190;54.980;73.388;2022-07-03T05:07:29;99549.25;;;21.63;52.64
50292;BME280;36190;54.980;73.388;2022-07-03T05:09:56;99545.81;;;21.78;52.16
50292;BME280;36190;54.980;73.388;2022-07-03T05:12:24;99544.31;;;22.08;51.66
50292;BME280;36190;54.980;73.388;2022-07-03T05:14:53;99549.84;;;22.34;51.14
50292;BME280;36190;54.980;73.388;2022-07-03T05:17:20;99549.88;;;22.49;50.83
50292;BME280;36190;54.980;73.388;2022-07-03T05:19:47;99551.50;;;22.40;50.85
50292;BME280;36190;54.980;73.388;2022-07-03T05:22:35;99548.75;;;22.30;50.81
50292;BME280;36190;54.980;73.388;2022-07-03T05:25:02;99545.22;;;22.34;50.82
50292;BME280;36190;54.980;73.388;2022-07-03T05:27:30;99552.09;;;22.52;50.22
50292;BME280;36190;54.980;73.388;2022-07-03T05:29:59;99552.34;;;22.56;50.15
50292;BME280;36190;54.980;73.388;2022-07-03T05:32:26;99553.16;;;22.51;49.93
50292;BME280;36190;54.980;73.388;2022-07-03T05:34:53;99547.72;;;22.51;49.94
50292;BME280;36190;54.980;73.388;2022-07-03T05:37:21;99546.09;;;22.50;49.39
50292;BME280;36190;54.980;73.388;2022-07-03T05:39:48;99540.63;;;22.40;49.31
50292;BME280;36190;54.980;73.388;2022-07-03T05:42:16;99538.72;;;22.35;49.28
50292;BME280;36190;54.980;73.388;2022-07-03T05:44:43;99536.22;;;22.23;48.79
50292;BME280;36190;54.980;73.388;2022-07-03T05:47:12;99534.00;;;22.05;48.90
50292;BME280;36190;54.980;73.388;2022-07-03T05:49:39;99536.13;;;21.92;49.25
50292;BME280;36190;54.980;73.388;2022-07-03T05:52:07;99538.25;;;21.80;49.33
50292;BME280;36190;54.980;73.388;2022-07-03T05:54:34;99543.09;;;21.73;49.31
50292;BME280;36190;54.980;73.388;2022-07-03T05:57:02;99536.75;;;21.62;49.21
50292;BME280;36190;54.980;73.388;2022-07-03T05:59:29;99542.44;;;21.60;49.42
50292;BME280;36190;54.980;73.388;2022-07-03T06:01:57;99540.94;;;21.75;49.35
50292;BME280;36190;54.980;73.388;2022-07-03T06:04:25;99534.75;;;21.90;49.05
50292;BME280;36190;54.980;73.388;2022-07-03T06:06:53;99535.09;;;22.09;48.88
50292;BME280;36190;54.980;73.388;2022-07-03T06:09:21;99528.66;;;22.31;48.34
50292;BME280;36190;54.980;73.388;2022-07-03T06:11:49;99526.22;;;22.45;48.03
50292;BME280;36190;54.980;73.388;2022-07-03T06:14:16;99526.81;;;22.52;47.91
50292;BME280;36190;54.980;73.388;2022-07-03T06:16:44;99534.16;;;22.57;47.56
50292;BME280;36190;54.980;73.388;2022-07-03T06:19:11;99536.31;;;22.60;47.77
50292;BME280;36190;54.980;73.388;2022-07-03T06:21:40;99532.53;;;22.56;47.45
50292;BME280;36190;54.980;73.388;2022-07-03T06:24:10;99536.06;;;22.51;47.54
50292;BME280;36190;54.980;73.388;2022-07-03T06:26:37;99534.66;;;22.48;47.63
50292;BME280;36190;54.980;73.388;2022-07-03T06:29:05;99525.69;;;22.48;48.02
50292;BME280;36190;54.980;73.388;2022-07-03T06:31:32;99530.31;;;22.47;47.94
50292;BME280;36190;54.980;73.388;2022-07-03T06:34:00;99532.53;;;22.61;47.70
50292;BME280;36190;54.980;73.388;2022-07-03T06:36:27;99527.66;;;22.78;47.60
50292;BME280;36190;54.980;73.388;2022-07-03T06:38:56;99528.22;;;23.01;47.12
50292;BME280;36190;54.980;73.388;2022-07-03T06:41:23;99520.56;;;23.08;46.72
50292;BME280;36190;54.980;73.388;2022-07-03T06:43:51;99532.56;;;22.97;46.77
50292;BME280;36190;54.980;73.388;2022-07-03T06:46:18;99532.53;;;22.66;47.10
50292;BME280;36190;54.980;73.388;2022-07-03T06:48:46;99527.56;;;22.42;47.32
50292;BME280;36190;54.980;73.388;2022-07-03T06:51:13;99530.00;;;22.33;47.32
50292;BME280;36190;54.980;73.388;2022-07-03T06:53:40;99518.03;;;22.24;47.62
50292;BME280;36190;54.980;73.388;2022-07-03T06:56:09;99526.41;;;22.07;47.82
50292;BME280;36190;54.980;73.388;2022-07-03T06:58:36;99530.47;;;21.99;48.05
50292;BME280;36190;54.980;73.388;2022-07-03T07:01:04;99526.66;;;22.00;48.38
50292;BME280;36190;54.980;73.388;2022-07-03T07:03:31;99525.84;;;22.10;48.28
50292;BME280;36190;54.980;73.388;2022-07-03T07:05:59;99525.44;;;22.44;47.85
50292;BME280;36190;54.980;73.388;2022-07-03T07:08:26;99530.38;;;22.89;47.08
50292;BME280;36190;54.980;73.388;2022-07-03T07:10:53;99530.63;;;23.24;46.12
50292;BME280;36190;54.980;73.388;2022-07-03T07:13:22;99539.06;;;23.22;45.76
50292;BME280;36190;54.980;73.388;2022-07-03T07:15:50;99535.81;;;23.10;45.58
50292;BME280;36190;54.980;73.388;2022-07-03T07:18:17;99527.66;;;23.15;45.38
50292;BME280;36190;54.980;73.388;2022-07-03T07:20:45;99529.28;;;23.21;45.72
50292;BME280;36190;54.980;73.388;2022-07-03T07:23:12;99520.59;;;23.19;45.33
50292;BME280;36190;54.980;73.388;2022-07-03T07:25:39;99516.25;;;23.18;45.36
50292;BME280;36190;54.980;73.388;2022-07-03T07:28:07;99523.31;;;23.19;45.36
50292;BME280;36190;54.980;73.388;2022-07-03T07:30:36;99526.56;;;23.21;45.18
50292;BME280;36190;54.980;73.388;2022-07-03T07:33:05;99517.88;;;23.34;44.97
50292;BME280;36190;54.980;73.388;2022-07-03T07:35:32;99516.19;;;23.49;44.88
50292;BME280;36190;54.980;73.388;2022-07-03T07:38:00;99511.22;;;23.77;44.12
50292;BME280;36190;54.980;73.388;2022-07-03T07:40:27;99521.16;;;24.13;43.96
50292;BME280;36190;54.980;73.388;2022-07-03T07:42:54;99512.00;;;24.38;43.28
50292;BME280;36190;54.980;73.388;2022-07-03T07:45:22;99520.84;;;24.65;42.77
50292;BME280;36190;54.980;73.388;2022-07-03T07:47:51;99521.09;;;24.68;42.29
50292;BME280;36190;54.980;73.388;2022-07-03T07:50:18;99520.69;;;24.45;42.31
50292;BME280;36190;54.980;73.388;2022-07-03T07:52:46;99520.91;;;24.04;42.66
50292;BME280;36190;54.980;73.388;2022-07-03T07:55:13;99522.16;;;23.56;43.10
50292;BME280;36190;54.980;73.388;2022-07-03T07:57:41;99520.28;;;23.20;43.52
50292;BME280;36190;54.980;73.388;2022-07-03T08:00:10;99504.28;;;22.93;44.19
50292;BME280;36190;54.980;73.388;2022-07-03T08:02:38;99521.66;;;22.92;44.31
50292;BME280;36190;54.980;73.388;2022-07-03T08:05:24;99517.31;;;22.80;44.45
50292;BME280;36190;54.980;73.388;2022-07-03T08:08:05;99521.94;;;22.64;45.04
50292;BME280;36190;54.980;73.388;2022-07-03T08:10:37;99514.28;;;22.41;45.30
50292;BME280;36190;54.980;73.388;2022-07-03T08:13:05;99521.28;;;22.31;45.74
50292;BME280;36190;54.980;73.388;2022-07-03T08:15:33;99520.47;;;22.20;46.08
50292;BME280;36190;54.980;73.388;2022-07-03T08:18:01;99522.63;;;22.18;46.10
50292;BME280;36190;54.980;73.388;2022-07-03T08:20:30;99526.47;;;22.28;46.30
50292;BME280;36190;54.980;73.388;2022-07-03T08:22:58;99524.03;;;22.36;46.18
50292;BME280;36190;54.980;73.388;2022-07-03T08:25:26;99531.91;;;22.43;46.02
50292;BME280;36190;54.980;73.388;2022-07-03T08:27:53;99528.72;;;22.57;46.00
50292;BME280;36190;54.980;73.388;2022-07-03T08:30:20;99527.66;;;22.84;45.67
50292;BME280;36190;54.980;73.388;2022-07-03T08:32:49;99528.19;;;23.06;45.19
50292;BME280;36190;54.980;73.388;2022-07-03T08:35:16;99516.44;;;23.58;44.31
50292;BME280;36190;54.980;73.388;2022-07-03T08:37:45;99518.00;;;24.40;43.24
50292;BME280;36190;54.980;73.388;2022-07-03T08:40:14;99520.75;;;24.75;42.73
50292;BME280;36190;54.980;73.388;2022-07-03T08:42:45;99523.19;;;24.82;42.23
50292;BME280;36190;54.980;73.388;2022-07-03T08:45:14;99515.56;;;24.79;42.00
50292;BME280;36190;54.980;73.388;2022-07-03T08:47:42;99519.41;;;24.72;42.51
50292;BME280;36190;54.980;73.388;2022-07-03T08:50:11;99519.22;;;24.64;42.25
50292;BME280;36190;54.980;73.388;2022-07-03T08:52:39;99523.88;;;24.58;42.49
50292;BME280;36190;54.980;73.388;2022-07-03T08:55:10;99523.47;;;24.40;42.57
50292;BME280;36190;54.980;73.388;2022-07-03T08:57:37;99525.13;;;24.31;42.71
50292;BME280;36190;54.980;73.388;2022-07-03T09:00:09;99521.44;;;24.56;42.64
50292;BME280;36190;54.980;73.388;2022-07-03T09:02:38;99530.59;;;25.11;41.74
50292;BME280;36190;54.980;73.388;2022-07-03T09:05:07;99526.38;;;25.53;41.39
50292;BME280;36190;54.980;73.388;2022-07-03T09:07:37;99522.06;;;25.72;40.43
50292;BME280;36190;54.980;73.388;2022-07-03T09:10:06;99518.28;;;25.92;40.56
50292;BME280;36190;54.980;73.388;2022-07-03T09:12:35;99520.41;;;26.39;39.58
50292;BME280;36190;54.980;73.388;2022-07-03T09:15:05;99522.19;;;27.01;39.00
50292;BME280;36190;54.980;73.388;2022-07-03T09:17:33;99518.97;;;27.60;38.27
50292;BME280;36190;54.980;73.388;2022-07-03T09:20:05;99522.47;;;28.03;37.11
50292;BME280;36190;54.980;73.388;2022-07-03T09:22:34;99519.97;;;28.43;37.04
50292;BME280;36190;54.980;73.388;2022-07-03T09:25:07;99513.16;;;29.09;36.00
50292;BME280;36190;54.980;73.388;2022-07-03T09:27:37;99511.66;;;29.57;34.98
50292;BME280;36190;54.980;73.388;2022-07-03T09:30:08;99517.84;;;29.72;34.64
50292;BME280;36190;54.980;73.388;2022-07-03T09:32:42;99509.94;;;29.88;33.88
50292;BME280;36190;54.980;73.388;2022-07-03T09:35:12;99508.06;;;30.15;33.90
50292;BME280;36190;54.980;73.388;2022-07-03T09:37:40;99512.13;;;30.35;33.50
50292;BME280;36190;54.980;73.388;2022-07-03T09:40:09;99509.53;;;30.65;33.11
50292;BME280;36190;54.980;73.388;2022-07-03T09:42:38;99515.06;;;30.30;32.91
50292;BME280;36190;54.980;73.388;2022-07-03T09:45:06;99515.41;;;29.38;34.12
50292;BME280;36190;54.980;73.388;2022-07-03T09:47:34;99510.00;;;28.47;35.25
50292;BME280;36190;54.980;73.388;2022-07-03T09:50:03;99507.41;;;27.63;36.14
50292;BME280;36190;54.980;73.388;2022-07-03T09:52:35;99509.41;;;26.96;36.96
50292;BME280;36190;54.980;73.388;2022-07-03T09:55:16;99503.16;;;26.76;37.48
50292;BME280;36190;54.980;73.388;2022-07-03T09:57:57;99489.16;;;26.45;38.22
50292;BME280;36190;54.980;73.388;2022-07-03T10:00:25;99497.38;;;26.01;38.55
50292;BME280;36190;54.980;73.388;2022-07-03T10:02:59;99502.09;;;25.52;39.61
50292;BME280;36190;54.980;73.388;2022-07-03T10:05:29;99493.69;;;25.19;40.30
50292;BME280;36190;54.980;73.388;2022-07-03T10:07:58;99506.59;;;25.08;40.57
50292;BME280;36190;54.980;73.388;2022-07-03T10:10:28;99496.22;;;25.10;40.63
50292;BME280;36190;54.980;73.388;2022-07-03T10:12:57;99496.41;;;25.92;39.77
50292;BME280;36190;54.980;73.388;2022-07-03T10:15:28;99497.81;;;27.18;38.11
50292;BME280;36190;54.980;73.388;2022-07-03T10:17:57;99491.88;;;27.58;37.06
50292;BME280;36190;54.980;73.388;2022-07-03T10:20:26;99497.75;;;27.80;37.14
50292;BME280;36190;54.980;73.388;2022-07-03T10:22:55;99490.06;;;28.33;36.47
50292;BME280;36190;54.980;73.388;2022-07-03T10:25:23;99491.81;;;28.51;36.23
50292;BME280;36190;54.980;73.388;2022-07-03T10:27:50;99490.44;;;28.86;35.74
50292;BME280;36190;54.980;73.388;2022-07-03T10:30:21;99487.38;;;29.19;35.17
50292;BME280;36190;54.980;73.388;2022-07-03T10:32:50;99481.41;;;29.17;35.09
50292;BME280;36190;54.980;73.388;2022-07-03T10:35:21;99482.69;;;28.65;34.91
50292;BME280;36190;54.980;73.388;2022-07-03T10:37:56;99475.69;;;28.81;35.02
50292;BME280;36190;54.980;73.388;2022-07-03T10:40:33;99481.38;;;29.48;34.38
50292;BME280;36190;54.980;73.388;2022-07-03T10:43:25;99479.75;;;29.07;34.59
50292;BME280;36190;54.980;73.388;2022-07-03T10:46:13;99483.25;;;28.16;35.32
50292;BME280;36190;54.980;73.388;2022-07-03T10:48:56;99477.84;;;27.32;36.54
50292;BME280;36190;54.980;73.388;2022-07-03T10:51:27;99486.16;;;26.60;37.62
50292;BME280;36190;54.980;73.388;2022-07-03T10:54:14;99484.09;;;26.14;38.22
50292;BME280;36190;54.980;73.388;2022-07-03T10:57:12;99478.59;;;25.75;38.73
50292;BME280;36190;54.980;73.388;2022-07-03T11:00:13;99473.97;;;25.51;39.32
50292;BME280;36190;54.980;73.388;2022-07-03T11:02:44;99477.53;;;25.22;39.86
50292;BME280;36190;54.980;73.388;2022-07-03T11:05:39;99468.81;;;25.20;39.83
50292;BME280;36190;54.980;73.388;2022-07-03T11:08:10;99472.09;;;25.22;40.33
50292;BME280;36190;54.980;73.388;2022-07-03T11:10:43;99463.38;;;25.69;39.37
50292;BME280;36190;54.980;73.388;2022-07-03T11:13:19;99472.16;;;27.42;37.76
50292;BME280;36190;54.980;73.388;2022-07-03T11:15:51;99473.94;;;29.08;35.30
50292;BME280;36190;54.980;73.388;2022-07-03T11:18:25;99468.38;;;29.72;34.07
50292;BME280;36190;54.980;73.388;2022-07-03T11:27:27;99472.66;;;30.22;33.74
50292;BME280;36190;54.980;73.388;2022-07-03T11:30:01;99470.69;;;30.40;32.99
50292;BME280;36190;54.980;73.388;2022-07-03T11:32:51;99475.91;;;31.16;32.27
50292;BME280;36190;54.980;73.388;2022-07-03T11:35:46;99470.53;;;31.89;31.37
50292;BME280;36190;54.980;73.388;2022-07-03T11:38:16;99473.59;;;31.36;31.47
50292;BME280;36190;54.980;73.388;2022-07-03T11:40:45;99471.34;;;30.28;32.04
50292;BME280;36190;54.980;73.388;2022-07-03T11:43:15;99464.63;;;29.27;33.30
50292;BME280;36190;54.980;73.388;2022-07-03T11:45:43;99456.88;;;28.66;33.91
50292;BME280;36190;54.980;73.388;2022-07-03T11:48:13;99461.00;;;28.18;34.59
50292;BME280;36190;54.980;73.388;2022-07-03T11:50:42;99457.97;;;27.68;35.27
50292;BME280;36190;54.980;73.388;2022-07-03T11:53:25;99457.53;;;27.33;35.92
50292;BME280;36190;54.980;73.388;2022-07-03T11:55:55;99455.66;;;26.86;36.81
50292;BME280;36190;54.980;73.388;2022-07-03T11:58:24;99454.13;;;26.47;37.38
50292;BME280;36190;54.980;73.388;2022-07-03T12:00:52;99447.34;;;26.25;37.47
50292;BME280;36190;54.980;73.388;2022-07-03T12:03:24;99444.06;;;26.04;38.13
50292;BME280;36190;54.980;73.388;2022-07-03T12:05:55;99445.22;;;25.78;38.48
50292;BME280;36190;54.980;73.388;2022-07-03T12:08:26;99438.88;;;25.64;38.67
50292;BME280;36190;54.980;73.388;2022-07-03T12:11:02;99435.13;;;25.54;38.73
50292;BME280;36190;54.980;73.388;2022-07-03T12:13:30;99429.72;;;25.49;39.01
50292;BME280;36190;54.980;73.388;2022-07-03T12:16:07;99426.78;;;25.46;39.15
50292;BME280;36190;54.980;73.388;2022-07-03T12:18:47;99432.59;;;25.39;39.03
50292;BME280;36190;54.980;73.388;2022-07-03T12:21:16;99426.66;;;25.32;39.69
50292;BME280;36190;54.980;73.388;2022-07-03T12:23:47;99424.56;;;25.23;39.85
50292;BME280;36190;54.980;73.388;2022-07-03T12:26:27;99431.97;;;25.18;40.04
50292;BME280;36190;54.980;73.388;2022-07-03T12:28:56;99424.22;;;25.06;40.51
50292;BME280;36190;54.980;73.388;2022-07-03T12:31:25;99407.31;;;25.04;40.74
50292;BME280;36190;54.980;73.388;2022-07-03T12:33:54;99418.19;;;25.09;40.85
50292;BME280;36190;54.980;73.388;2022-07-03T12:36:22;99405.75;;;24.97;40.95
50292;BME280;36190;54.980;73.388;2022-07-03T12:38:54;99417.75;;;24.96;41.16
50292;BME280;36190;54.980;73.388;2022-07-03T12:41:22;99410.50;;;24.87;41.08
50292;BME280;36190;54.980;73.388;2022-07-03T12:43:50;99407.53;;;24.78;41.47
50292;BME280;36190;54.980;73.388;2022-07-03T12:46:22;99407.53;;;24.78;41.62
50292;BME280;36190;54.980;73.388;2022-07-03T12:48:53;99405.38;;;24.80;41.46
50292;BME280;36190;54.980;73.388;2022-07-03T12:51:45;99400.06;;;24.94;41.41
50292;BME280;36190;54.980;73.388;2022-07-03T12:54:21;99395.66;;;24.98;41.29
50292;BME280;36190;54.980;73.388;2022-07-03T12:57:03;99396.94;;;25.06;41.21
50292;BME280;36190;54.980;73.388;2022-07-03T13:00:02;99398.59;;;25.02;41.34
50292;BME280;36190;54.980;73.388;2022-07-03T13:02:29;99399.25;;;24.93;41.21
50292;BME280;36190;54.980;73.388;2022-07-03T13:04:58;99396.00;;;24.91;41.62
50292;BME280;36190;54.980;73.388;2022-07-03T13:07:29;99392.50;;;24.85;41.53
50292;BME280;36190;54.980;73.388;2022-07-03T13:10:00;99391.69;;;24.85;41.83
50292;BME280;36190;54.980;73.388;2022-07-03T13:12:28;99390.34;;;24.82;41.82
50292;BME280;36190;54.980;73.388;2022-07-03T13:14:57;99396.63;;;24.78;41.85
50292;BME280;36190;54.980;73.388;2022-07-03T13:17:50;99383.00;;;24.78;41.98
50292;BME280;36190;54.980;73.388;2022-07-03T13:20:18;99385.31;;;24.65;41.94